Airport View

Enter AWOS ICAO identifier for current METAR.

ex. KFNL

KGNT 051245Z AUTO 00000KT 10SM SCT120 18/04 A3029 RMK AO2 T01750039

5 Aug 2020 12:46

Frequency: 118.3

Phone: 505-287-9890

Other Area AWOS: KGUP - KAEG - KE80 - KABQ

TAF KGUP 051134Z 0512/0612 19006KT P6SM SKC FM051900 24012G18KT P6SM SCT130 FM060200 22006KT P6SM FEW130